Terminal Aerodrome Forecast
Issued by NWS Milwaukee/Sullivan, WI

Home | Current Version | Previous Version | Text Only | Print | Product List | Glossary On
Versions: 1 2 3 4 5 6 7 8 9 10 11 12 13 14 15 16 17 18 19 20 21 22 23 24 25
000
FTUS43 KMKX 272343
TAFMKE
TAF
KMKE 272343Z 2800/0106 16007KT P6SM SCT150
     FM280800 15008KT 5SM -SHRA BR OVC045
     FM281000 15009KT 5SM -SHRA BR OVC008
     FM281200 16007KT 5SM BR OVC003
     FM281500 18007KT P6SM OVC010
     FM282100 18008KT 4SM BR OVC008
     FM282300 19007KT 3SM SHRA BR OVC010
     FM010200 25006KT 3SM SHRA BR OVC015
     FM010400 30007KT 3SM SHRA BR OVC015=

USA.gov is the U.S. government's official web portal to all federal, state and local government web resources and services.